Terminal Aerodrome Forecast
Issued by NWS Lake Charles, LA

Home | Current Version | Previous Version | Text Only | Print | Product List | Glossary On
Versions: 1 2 3 4 5 6 7 8 9 10 11 12 13 14 15 16 17 18 19 20 21 22
175
FTUS44 KLCH 042112 AAA
TAFBPT
TAF AMD
KBPT 042112Z 0421/0518 02012KT P6SM -RA BKN008
      TEMPO 0421/0424 4SM -SHRA BR BKN007
     FM050000 02010KT 4SM -SHRA BR OVC007
     FM051500 05010KT 2SM TSRA BR OVC007CB=

USA.gov is the U.S. government's official web portal to all federal, state and local government web resources and services.